createdAt,value
2016-06-29T00:00:28.523Z,85.92
2016-06-29T00:01:27.898Z,86.01
2016-06-29T00:02:28.511Z,86.01
2016-06-29T00:03:27.874Z,86.21
2016-06-29T00:04:27.867Z,86.3
2016-06-29T00:05:28.462Z,86.58
2016-06-29T00:06:28.457Z,86.49
2016-06-29T00:07:28.449Z,86.78
2016-06-29T00:08:28.016Z,86.68
2016-06-29T00:09:28.424Z,86.97
2016-06-29T00:10:27.794Z,86.54
2016-06-29T00:11:27.790Z,86.45
2016-06-29T00:12:27.782Z,86.64
2016-06-29T00:13:28.373Z,86.74
2016-06-29T00:14:28.383Z,87.02
2016-06-29T00:15:27.743Z,87.41
2016-06-29T00:16:28.333Z,87.21
2016-06-29T00:17:28.339Z,87.21
2016-06-29T00:18:28.325Z,87.12
2016-06-29T00:19:28.327Z,87.02
2016-06-29T00:20:28.307Z,86.93
2016-06-29T00:21:28.306Z,87.6
2016-06-29T00:22:27.665Z,86.93
2016-06-29T00:23:28.254Z,87.02
2016-06-29T00:24:28.240Z,87.7
2016-06-29T00:25:28.236Z,87.5
2016-06-29T00:26:27.635Z,87.79
2016-06-29T00:27:27.597Z,87.79
2016-06-29T00:28:27.588Z,87.98
2016-06-29T00:29:28.180Z,87.7
2016-06-29T00:30:27.553Z,88.17
2016-06-29T00:31:28.162Z,87.98
2016-06-29T00:32:27.585Z,88.27
2016-06-29T00:33:28.191Z,88.27
2016-06-29T00:34:28.142Z,88.37
2016-06-29T00:35:28.105Z,88.17
2016-06-29T00:36:28.101Z,88.27
2016-06-29T00:37:27.478Z,88.27
2016-06-29T00:38:27.471Z,88.37
2016-06-29T00:39:27.463Z,88.17
2016-06-29T00:40:28.057Z,88.27
2016-06-29T00:41:28.042Z,88.56
2016-06-29T00:42:28.036Z,88.65
2016-06-29T00:43:28.033Z,88.65
2016-06-29T00:44:28.010Z,88.75
2016-06-29T00:45:28.009Z,88.65
2016-06-29T00:46:27.990Z,88.75
2016-06-29T00:47:27.366Z,89.32
2016-06-29T00:48:27.990Z,89.13
2016-06-29T00:49:27.950Z,89.04
2016-06-29T00:50:27.320Z,89.42
2016-06-29T00:51:27.930Z,89.42
2016-06-29T00:52:27.911Z,89.9
2016-06-29T00:53:27.909Z,89.8
2016-06-29T00:54:27.947Z,89.51
2016-06-29T00:55:27.266Z,89.71
2016-06-29T00:56:27.870Z,90.04
2016-06-29T00:57:27.915Z,89.71
2016-06-29T00:58:27.233Z,90.42
2016-06-29T00:59:27.838Z,90
2016-06-29T01:00:27.827Z,90
2016-06-29T01:01:27.817Z,89.51
2016-06-29T01:02:27.184Z,90
2016-06-29T01:03:27.800Z,89.9
2016-06-29T01:04:27.170Z,89.32
2016-06-29T01:05:27.157Z,89.42
2016-06-29T01:06:27.751Z,89.42
2016-06-29T01:07:27.161Z,89.8
2016-06-29T01:08:27.736Z,90
2016-06-29T01:09:27.104Z,89.8
2016-06-29T01:10:27.709Z,89.61
2016-06-29T01:11:27.082Z,90.19
2016-06-29T01:12:27.690Z,89.8
2016-06-29T01:13:27.056Z,89.71
2016-06-29T01:14:27.047Z,89.8
2016-06-29T01:15:27.643Z,90.47
2016-06-29T01:16:27.023Z,90.67
2016-06-29T01:17:27.012Z,90.47
2016-06-29T01:18:27.010Z,90.47
2016-06-29T01:19:26.990Z,90.19
2016-06-29T01:20:27.603Z,90.67
2016-06-29T01:21:26.979Z,90.38
2016-06-29T01:22:26.966Z,90.38
2016-06-29T01:23:26.996Z,90.38
2016-06-29T01:24:27.542Z,90.47
2016-06-29T01:25:26.922Z,90.47
2016-06-29T01:26:26.903Z,90
2016-06-29T01:27:27.513Z,90.09
2016-06-29T01:28:26.878Z,90.19
2016-06-29T01:29:27.485Z,90.09
2016-06-29T01:30:26.850Z,90.57
2016-06-29T01:31:27.459Z,90.47
2016-06-29T01:32:27.451Z,90.28
2016-06-29T01:33:27.445Z,90.38
2016-06-29T01:34:27.449Z,90.47
2016-06-29T01:35:26.796Z,90.42
2016-06-29T01:36:26.786Z,90.76
2016-06-29T01:37:26.771Z,90.86
2016-06-29T01:38:27.391Z,91.34
2016-06-29T01:39:27.379Z,90.67
2016-06-29T01:40:27.361Z,90.86
2016-06-29T01:41:26.782Z,90.67
2016-06-29T01:42:27.359Z,90.76
2016-06-29T01:43:26.707Z,90.86
2016-06-29T01:44:26.692Z,90.67
2016-06-29T01:45:26.683Z,91.24
2016-06-29T01:46:27.285Z,90.57
2016-06-29T01:47:27.268Z,90.67
2016-06-29T01:48:26.661Z,90.76
2016-06-29T01:49:26.641Z,91.05
2016-06-29T01:50:26.620Z,91.05
2016-06-29T01:51:26.604Z,90.76
2016-06-29T01:52:27.222Z,91.63
2016-06-29T01:53:26.594Z,90.76
2016-06-29T01:54:26.570Z,91.34
2016-06-29T01:55:26.563Z,90.67
2016-06-29T01:56:26.546Z,91.43
2016-06-29T01:57:27.207Z,91.14
2016-06-29T01:58:26.520Z,91.63
2016-06-29T01:59:26.509Z,91.53
2016-06-29T02:00:26.500Z,91.43
2016-06-29T02:01:27.109Z,91.53
2016-06-29T02:02:26.484Z,91.34
2016-06-29T02:03:27.082Z,90.76
2016-06-29T02:04:26.450Z,91.43
2016-06-29T02:05:26.439Z,91.14
2016-06-29T02:06:26.458Z,91.34
2016-06-29T02:07:27.027Z,91.24
2016-06-29T02:08:27.432Z,91.53
2016-06-29T02:09:26.393Z,92.01
2016-06-29T02:10:27.000Z,91.82
2016-06-29T02:11:26.377Z,92.01
2016-06-29T02:12:26.368Z,91.72
2016-06-29T02:13:26.346Z,91.53
2016-06-29T02:14:26.946Z,91.91
2016-06-29T02:15:26.321Z,91.82
2016-06-29T02:16:26.302Z,92.01
2016-06-29T02:17:26.908Z,91.63
2016-06-29T02:18:26.308Z,91.63
2016-06-29T02:19:26.880Z,91.72
2016-06-29T02:20:26.872Z,91.82
2016-06-29T02:21:26.861Z,91.82
2016-06-29T02:22:26.849Z,91.82
2016-06-29T02:23:26.228Z,91.72
2016-06-29T02:24:26.263Z,92.2
2016-06-29T02:25:26.818Z,92.3
2016-06-29T02:26:26.187Z,92.87
2016-06-29T02:27:26.787Z,92.39
2016-06-29T02:28:26.777Z,92.39
2016-06-29T02:29:26.150Z,92.77
2016-06-29T02:30:26.144Z,93.16
2016-06-29T02:31:26.142Z,93.26
2016-06-29T02:32:26.727Z,93.83
2016-06-29T02:33:26.827Z,93.06
2016-06-29T02:34:26.093Z,93.93
2016-06-29T02:35:26.085Z,93.83
2016-06-29T02:36:26.701Z,93.73
2016-06-29T02:37:26.047Z,94.12
2016-06-29T02:38:26.051Z,94.4
2016-06-29T02:39:26.033Z,94.59
2016-06-29T02:40:26.024Z,94.4
2016-06-29T02:41:26.623Z,94.31
2016-06-29T02:42:26.601Z,95.26
2016-06-29T02:43:26.602Z,94.59
2016-06-29T02:44:25.976Z,94.55
2016-06-29T02:45:25.958Z,94.07
2016-06-29T02:46:25.957Z,94.26
2016-06-29T02:47:26.542Z,93.88
2016-06-29T02:48:25.912Z,94.26
2016-06-29T02:49:26.515Z,94.07
2016-06-29T02:50:26.525Z,94.26
2016-06-29T02:51:26.505Z,93.88
2016-06-29T02:52:26.538Z,94.07
2016-06-29T02:53:25.859Z,93.98
2016-06-29T02:54:26.455Z,94.17
2016-06-29T02:55:26.453Z,93.59
2016-06-29T02:56:26.431Z,93.69
2016-06-29T02:57:25.802Z,93.78
2016-06-29T02:58:26.409Z,93.3
2016-06-29T02:59:25.782Z,93.3
2016-06-29T03:00:26.395Z,93.02
2016-06-29T03:01:26.381Z,93.49
2016-06-29T03:02:26.363Z,93.59
2016-06-29T03:03:26.362Z,93.69
2016-06-29T03:04:26.326Z,93.4
2016-06-29T03:05:26.335Z,93.4
2016-06-29T03:06:26.320Z,93.69
2016-06-29T03:07:26.365Z,93.02
2016-06-29T03:08:25.723Z,93.88
2016-06-29T03:09:25.665Z,93.3
2016-06-29T03:10:25.648Z,93.4
2016-06-29T03:11:26.250Z,93.3
2016-06-29T03:12:25.625Z,93.4
2016-06-29T03:13:25.611Z,93.21
2016-06-29T03:14:25.625Z,93.78
2016-06-29T03:15:26.207Z,93.4
2016-06-29T03:16:25.575Z,93.4
2016-06-29T03:17:26.181Z,93.59
2016-06-29T03:18:26.155Z,93.4
2016-06-29T03:19:26.149Z,93.59
2016-06-29T03:20:25.523Z,93.88
2016-06-29T03:21:25.514Z,93.4
2016-06-29T03:22:25.496Z,93.69
2016-06-29T03:23:25.501Z,93.21
2016-06-29T03:24:25.478Z,93.3
2016-06-29T03:25:25.461Z,93.78
2016-06-29T03:26:25.445Z,93.49
2016-06-29T03:27:26.046Z,93.69
2016-06-29T03:28:26.056Z,93.69
2016-06-29T03:29:26.050Z,94.26
2016-06-29T03:30:26.023Z,93.74
2016-06-29T03:31:25.381Z,93.64
2016-06-29T03:32:25.376Z,93.64
2016-06-29T03:33:26.190Z,93.74
2016-06-29T03:34:25.965Z,93.26
2016-06-29T03:35:25.959Z,93.74
2016-06-29T03:36:25.947Z,93.45
2016-06-29T03:37:25.950Z,93.54
2016-06-29T03:38:25.911Z,93.74
2016-06-29T03:39:25.904Z,93.35
2016-06-29T03:40:25.894Z,93.35
2016-06-29T03:41:25.257Z,93.54
2016-06-29T03:42:25.884Z,93.64
2016-06-29T03:43:25.843Z,93.54
2016-06-29T03:44:25.845Z,92.78
2016-06-29T03:45:25.821Z,92.58
2016-06-29T03:46:25.818Z,92.87
2016-06-29T03:47:25.195Z,92.68
2016-06-29T03:48:25.171Z,92.68
2016-06-29T03:49:25.157Z,92.58
2016-06-29T03:50:25.142Z,92.78
2016-06-29T03:51:25.145Z,92.3
2016-06-29T03:52:25.751Z,92.49
2016-06-29T03:53:25.735Z,92.49
2016-06-29T03:54:25.717Z,92.49
2016-06-29T03:55:25.702Z,92.4
2016-06-29T03:56:25.683Z,92.21
2016-06-29T03:57:25.682Z,92.49
2016-06-29T03:58:25.665Z,92.3
2016-06-29T03:59:25.037Z,92.4
2016-06-29T04:00:25.095Z,92.3
2016-06-29T04:01:25.077Z,92.01
2016-06-29T04:02:25.002Z,92.49
2016-06-29T04:03:24.977Z,92.49
2016-06-29T04:04:24.967Z,92.11
2016-06-29T04:05:24.961Z,92.21
2016-06-29T04:06:24.944Z,92.4
2016-06-29T04:07:25.554Z,92.4
2016-06-29T04:08:25.543Z,92.49
2016-06-29T04:09:24.910Z,92.4
2016-06-29T04:10:25.509Z,92.4
2016-06-29T04:11:25.497Z,91.82
2016-06-29T04:12:25.486Z,91.72
2016-06-29T04:13:25.467Z,91.72
2016-06-29T04:14:25.460Z,91.82
2016-06-29T04:15:25.442Z,91.63
2016-06-29T04:16:25.439Z,91.72
2016-06-29T04:17:25.416Z,91.53
2016-06-29T04:18:24.803Z,91.92
2016-06-29T04:19:24.775Z,91.92
2016-06-29T04:20:25.408Z,92.11
2016-06-29T04:21:25.377Z,91.92
2016-06-29T04:22:25.365Z,91.72
2016-06-29T04:23:25.343Z,91.72
2016-06-29T04:24:24.721Z,91.72
2016-06-29T04:25:25.323Z,91.72
2016-06-29T04:26:24.692Z,92.11
2016-06-29T04:27:24.690Z,92.58
2016-06-29T04:28:25.287Z,92.3
2016-06-29T04:29:25.060Z,92.3
2016-06-29T04:30:25.280Z,92.11
2016-06-29T04:31:24.651Z,92.21
2016-06-29T04:32:25.259Z,92.68
2016-06-29T04:33:25.273Z,92.49
2016-06-29T04:34:25.242Z,92.49
2016-06-29T04:35:25.243Z,92.78
2016-06-29T04:36:25.205Z,92.97
2016-06-29T04:37:25.180Z,93.07
2016-06-29T04:38:25.161Z,93.07
2016-06-29T04:39:25.146Z,92.87
2016-06-29T04:40:25.132Z,92.58
2016-06-29T04:41:24.507Z,92.68
2016-06-29T04:42:25.110Z,92.87
2016-06-29T04:43:25.097Z,92.87
2016-06-29T04:44:25.089Z,92.78
2016-06-29T04:45:24.485Z,92.78
2016-06-29T04:46:24.969Z,92.01
2016-06-29T04:47:25.068Z,92.3
2016-06-29T04:48:25.068Z,92.3
2016-06-29T04:49:25.057Z,92.11
2016-06-29T04:50:25.026Z,92.01
2016-06-29T04:51:25.014Z,91.92
2016-06-29T04:52:24.377Z,91.72
2016-06-29T04:53:24.974Z,91.72
2016-06-29T04:54:24.343Z,91.82
2016-06-29T04:55:24.958Z,91.34
2016-06-29T04:56:24.946Z,91.44
2016-06-29T04:57:24.923Z,91.44
2016-06-29T04:58:24.916Z,91.34
2016-06-29T04:59:24.921Z,90.58
2016-06-29T05:00:24.908Z,90.77
2016-06-29T05:01:24.253Z,90.48
2016-06-29T05:02:24.862Z,90.77
2016-06-29T05:03:24.857Z,90.58
2016-06-29T05:04:24.219Z,90.48
2016-06-29T05:05:24.237Z,90.58
2016-06-29T05:06:24.200Z,91.1
2016-06-29T05:07:24.798Z,90.33
2016-06-29T05:08:24.783Z,90.62
2016-06-29T05:09:24.792Z,90.33
2016-06-29T05:10:24.774Z,90.33
2016-06-29T05:11:24.747Z,90.23
2016-06-29T05:12:24.119Z,90.05
2016-06-29T05:13:24.116Z,89.95
2016-06-29T05:14:24.100Z,89.28
2016-06-29T05:15:24.088Z,89.47
2016-06-29T05:16:24.076Z,89.47
2016-06-29T05:17:24.683Z,89.57
2016-06-29T05:18:24.052Z,89.57
2016-06-29T05:19:24.042Z,89.86
2016-06-29T05:20:24.067Z,90.53
2016-06-29T05:21:24.016Z,89.76
2016-06-29T05:22:24.014Z,90.62
2016-06-29T05:23:24.602Z,90.43
2016-06-29T05:24:24.010Z,90.23
2016-06-29T05:25:24.584Z,90.43
2016-06-29T05:26:24.568Z,90.43
2016-06-29T05:27:24.548Z,89.95
2016-06-29T05:28:24.655Z,90.33
2016-06-29T05:29:24.538Z,90.23
2016-06-29T05:30:24.520Z,90.33
2016-06-29T05:31:23.924Z,90.62
2016-06-29T05:32:24.509Z,90.72
2016-06-29T05:33:23.871Z,89.57
2016-06-29T05:34:23.858Z,89.47
2016-06-29T05:35:24.459Z,89.18
2016-06-29T05:36:23.850Z,89.66
2016-06-29T05:37:23.813Z,88.61
2016-06-29T05:38:24.430Z,88.9
2016-06-29T05:39:24.411Z,88.42
2016-06-29T05:40:23.783Z,88.23
2016-06-29T05:41:23.780Z,87.74
2016-06-29T05:42:24.370Z,88.42
2016-06-29T05:43:23.743Z,88.51
2016-06-29T05:44:23.738Z,86.98
2016-06-29T05:45:24.331Z,88.13
2016-06-29T05:46:23.709Z,87.65
2016-06-29T05:47:24.310Z,87.94
2016-06-29T05:48:24.299Z,86.88
2016-06-29T05:49:23.671Z,86.98
2016-06-29T05:50:24.273Z,86.69
2016-06-29T05:51:24.257Z,86.02
2016-06-29T05:52:24.246Z,86.41
2016-06-29T05:53:23.638Z,86.5
2016-06-29T05:54:23.607Z,86.12
2016-06-29T05:55:23.601Z,85.93
2016-06-29T05:56:23.584Z,86.12
2016-06-29T05:57:24.189Z,85.45
2016-06-29T05:58:23.560Z,85.64
2016-06-29T05:59:24.168Z,85.64
2016-06-29T06:00:24.152Z,85.83
2016-06-29T06:01:24.143Z,85.45
2016-06-29T06:02:23.513Z,85.45
2016-06-29T06:03:24.116Z,85.45
2016-06-29T06:04:23.486Z,85.16
2016-06-29T06:05:23.474Z,85.45
2016-06-29T06:06:24.072Z,85.16
2016-06-29T06:07:23.456Z,85.83
2016-06-29T06:08:23.441Z,85.93
2016-06-29T06:09:24.256Z,85.74
2016-06-29T06:10:23.430Z,86.02
2016-06-29T06:11:24.028Z,86.08
2016-06-29T06:12:24.012Z,86.46
2016-06-29T06:13:23.387Z,86.27
2016-06-29T06:14:23.370Z,85.98
2016-06-29T06:15:23.967Z,86.65
2016-06-29T06:16:23.396Z,86.55
2016-06-29T06:17:23.330Z,85.5
2016-06-29T06:18:24.163Z,86.17
2016-06-29T06:19:23.925Z,86.17
2016-06-29T06:20:23.306Z,86.08
2016-06-29T06:21:23.906Z,84.45
2016-06-29T06:22:23.271Z,83.59
2016-06-29T06:23:23.880Z,82.73
2016-06-29T06:24:23.253Z,83.3
2016-06-29T06:25:23.853Z,83.68
2016-06-29T06:26:23.230Z,82.63
2016-06-29T06:27:23.205Z,83.78
2016-06-29T06:28:23.815Z,82.82
2016-06-29T06:29:23.796Z,83.78
2016-06-29T06:30:23.779Z,82.82
2016-06-29T06:31:23.168Z,82.73
2016-06-29T06:32:23.157Z,82.34
2016-06-29T06:33:23.753Z,82.92
2016-06-29T06:34:23.134Z,82.53
2016-06-29T06:35:23.104Z,82.53
2016-06-29T06:36:23.099Z,82.06
2016-06-29T06:37:23.691Z,82.06
2016-06-29T06:38:23.685Z,82.76
2016-06-29T06:39:23.057Z,81.9
2016-06-29T06:40:23.671Z,81.86
2016-06-29T06:41:23.038Z,82.19
2016-06-29T06:42:23.043Z,82.09
2016-06-29T06:43:23.009Z,81.71
2016-06-29T06:44:23.614Z,82.19
2016-06-29T06:45:22.983Z,82.38
2016-06-29T06:46:23.594Z,81.9
2016-06-29T06:47:23.571Z,81.9
2016-06-29T06:48:23.564Z,81.9
2016-06-29T06:49:23.558Z,82.32
2016-06-29T06:50:23.535Z,81.95
2016-06-29T06:51:22.924Z,82.23
2016-06-29T06:52:22.910Z,81.08
2016-06-29T06:53:22.906Z,80.99
2016-06-29T06:54:23.495Z,80.51
2016-06-29T06:55:23.485Z,80.18
2016-06-29T06:56:23.476Z,80.27
2016-06-29T06:57:23.483Z,79.99
2016-06-29T06:58:23.449Z,80.08
2016-06-29T06:59:22.822Z,80.27
2016-06-29T07:00:22.819Z,82.09
2016-06-29T07:01:23.409Z,81.23
2016-06-29T07:02:23.402Z,81.33
2016-06-29T07:03:22.782Z,81.81
2016-06-29T07:04:23.375Z,81.62
2016-06-29T07:05:22.750Z,81.33
2016-06-29T07:06:22.738Z,80.85
2016-06-29T07:07:23.339Z,80.76
2016-06-29T07:08:23.341Z,80.37
2016-06-29T07:09:22.715Z,80.27
2016-06-29T07:10:23.298Z,80.85
2016-06-29T07:11:23.300Z,80.47
2016-06-29T07:12:23.283Z,80.18
2016-06-29T07:13:23.263Z,81.33
2016-06-29T07:14:22.643Z,80.56
2016-06-29T07:15:23.250Z,81.52
2016-06-29T07:16:22.622Z,81.04
2016-06-29T07:17:23.227Z,81.04
2016-06-29T07:18:23.214Z,82.09
2016-06-29T07:19:22.586Z,81.52
2016-06-29T07:20:23.187Z,81.81
2016-06-29T07:21:22.557Z,82.09
2016-06-29T07:22:23.176Z,81.04
2016-06-29T07:23:22.569Z,80.18
2016-06-29T07:24:22.526Z,80.76
2016-06-29T07:25:23.133Z,80.66
2016-06-29T07:26:22.505Z,80.66
2016-06-29T07:27:23.106Z,80.56
2016-06-29T07:28:23.095Z,81.33
2016-06-29T07:29:23.085Z,81.13
2016-06-29T07:30:23.065Z,81.33
2016-06-29T07:31:23.047Z,81.23
2016-06-29T07:32:23.044Z,81.23
2016-06-29T07:33:22.422Z,81.9
2016-06-29T07:34:23.040Z,81.52
2016-06-29T07:35:22.390Z,81.04
2016-06-29T07:36:22.994Z,81.04
2016-06-29T07:37:22.407Z,80.18
2016-06-29T07:38:22.971Z,81.13
2016-06-29T07:39:22.350Z,80.56
2016-06-29T07:40:22.329Z,80.56
2016-06-29T07:41:22.353Z,81.62
2016-06-29T07:42:22.916Z,80.76
2016-06-29T07:43:22.912Z,80.85
2016-06-29T07:44:22.926Z,80.66
2016-06-29T07:45:22.894Z,79.89
2016-06-29T07:46:22.262Z,79.64
2016-06-29T07:47:22.265Z,80.22
2016-06-29T07:48:22.859Z,79.55
2016-06-29T07:49:22.226Z,79.55
2016-06-29T07:50:22.817Z,80.12
2016-06-29T07:51:22.830Z,80.41
2016-06-29T07:52:22.814Z,80.12
2016-06-29T07:53:22.791Z,81.27
2016-06-29T07:54:22.783Z,80.03
2016-06-29T07:55:22.775Z,80.22
2016-06-29T07:56:22.142Z,80.12
2016-06-29T07:57:22.136Z,79.39
2016-06-29T07:58:22.751Z,78.25
2016-06-29T07:59:22.106Z,78.53
2016-06-29T08:00:22.718Z,78.72
2016-06-29T08:01:22.701Z,77.76
2016-06-29T08:02:22.691Z,78.53
2016-06-29T08:03:22.065Z,77.95
2016-06-29T08:04:22.051Z,77.42
2016-06-29T08:05:22.095Z,77.33
2016-06-29T08:06:22.038Z,76.12
2016-06-29T08:07:22.637Z,75.92
2016-06-29T08:08:22.626Z,75.92
2016-06-29T08:09:22.236Z,75.35
2016-06-29T08:10:22.000Z,72.77
2016-06-29T08:11:22.592Z,71.14
2016-06-29T08:12:21.962Z,69.85
2016-06-29T08:13:22.573Z,69.51
2016-06-29T08:14:22.570Z,69.51
2016-06-29T08:15:21.937Z,69.12
2016-06-29T08:16:21.936Z,67.55
2016-06-29T08:17:21.944Z,67.07
2016-06-29T08:18:22.540Z,68.23
2016-06-29T08:19:22.514Z,69.7
2016-06-29T08:20:22.512Z,69.28
2016-06-29T08:21:21.891Z,71.17
2016-06-29T08:22:21.886Z,72.86
2016-06-29T08:23:21.871Z,73.02
2016-06-29T08:24:22.473Z,73.88
2016-06-29T08:25:22.475Z,72.99
2016-06-29T08:26:22.459Z,73.21
2016-06-29T08:27:21.837Z,72.99
2016-06-29T08:28:22.438Z,74.29
2016-06-29T08:29:21.830Z,74.19
2016-06-29T08:30:21.819Z,74.68
2016-06-29T08:31:22.424Z,73.87
2016-06-29T08:32:22.419Z,74.64
2016-06-29T08:33:21.787Z,75.5
2016-06-29T08:34:21.782Z,75.02
2016-06-29T08:35:21.776Z,75.4
2016-06-29T08:36:21.757Z,75.4
2016-06-29T08:37:21.751Z,75.21
2016-06-29T08:38:22.351Z,73.14
2016-06-29T08:39:21.748Z,73.43
2016-06-29T08:40:22.338Z,73.81
2016-06-29T08:41:21.725Z,74.73
2016-06-29T08:42:21.695Z,74.73
2016-06-29T08:43:21.699Z,74.83
2016-06-29T08:44:21.668Z,74.83
2016-06-29T08:45:21.674Z,75.12
2016-06-29T08:46:21.663Z,75.5
2016-06-29T08:47:21.658Z,75.75
2016-06-29T08:48:22.250Z,75.65
2016-06-29T08:49:22.261Z,75.65
2016-06-29T08:50:21.647Z,75.08
2016-06-29T08:51:22.231Z,75.4
2016-06-29T08:52:22.223Z,74.64
2016-06-29T08:53:22.208Z,74.93
2016-06-29T08:54:21.590Z,74.73
2016-06-29T08:55:22.184Z,75.15
2016-06-29T08:56:21.553Z,74.68
2016-06-29T08:57:21.551Z,74.68
2016-06-29T08:58:21.547Z,74.19
2016-06-29T08:59:21.561Z,74.52
2016-06-29T09:00:21.527Z,73.46
2016-06-29T09:01:22.134Z,73.18
2016-06-29T09:02:21.503Z,72.99
2016-06-29T09:03:22.099Z,73.27
2016-06-29T09:04:21.490Z,73.46
2016-06-29T09:05:21.489Z,73.66
2016-06-29T09:06:21.457Z,73.37
2016-06-29T09:07:22.079Z,72.99
2016-06-29T09:08:22.054Z,73.85
2016-06-29T09:09:22.043Z,73.27
2016-06-29T09:10:22.026Z,73.08
2016-06-29T09:11:22.026Z,73.94
2016-06-29T09:12:22.014Z,73.66
2016-06-29T09:13:22.005Z,74.19
2016-06-29T09:14:21.425Z,73.18
2016-06-29T09:15:21.372Z,74.23
2016-06-29T09:16:22.002Z,73.66
2016-06-29T09:17:21.967Z,72.69
2016-06-29T09:18:21.350Z,72.22
2016-06-29T09:19:21.330Z,72.69
2016-06-29T09:20:21.325Z,72.5
2016-06-29T09:21:21.317Z,73.18
2016-06-29T09:22:21.931Z,74.04
2016-06-29T09:23:21.917Z,73.18
2016-06-29T09:24:21.901Z,73.46
2016-06-29T09:25:21.274Z,72.79
2016-06-29T09:26:21.887Z,73.21
2016-06-29T09:27:21.869Z,72.22
2016-06-29T09:28:21.924Z,72.69
2016-06-29T09:29:21.857Z,73.18
2016-06-29T09:30:21.855Z,73.14
2016-06-29T09:31:21.841Z,73.33
2016-06-29T09:32:21.836Z,73.52
2016-06-29T09:33:21.820Z,74.19
2016-06-29T09:34:21.856Z,74.29
2016-06-29T09:35:21.801Z,74.39
2016-06-29T09:36:21.791Z,73.81
2016-06-29T09:37:21.162Z,74.19
2016-06-29T09:38:21.768Z,73.77
2016-06-29T09:39:21.755Z,73.68
2016-06-29T09:40:21.774Z,74.26
2016-06-29T09:41:21.119Z,74.35
2016-06-29T09:42:21.742Z,74.35
2016-06-29T09:43:21.104Z,73.58
2016-06-29T09:44:21.086Z,73.49
2016-06-29T09:45:21.705Z,74.44
2016-06-29T09:46:21.700Z,74.35
2016-06-29T09:47:21.682Z,73.49
2016-06-29T09:48:21.094Z,73.24
2016-06-29T09:49:21.656Z,73.91
2016-06-29T09:50:21.650Z,74.68
2016-06-29T09:51:21.028Z,73.33
2016-06-29T09:52:21.034Z,74.68
2016-06-29T09:53:20.987Z,73.72
2016-06-29T09:54:21.610Z,72.85
2016-06-29T09:55:21.592Z,73.14
2016-06-29T09:56:21.577Z,72.95
2016-06-29T09:57:21.582Z,72.56
2016-06-29T09:58:20.941Z,72.37
2016-06-29T09:59:21.549Z,73.24
2016-06-29T10:00:21.553Z,72.79
2016-06-29T10:01:20.919Z,73.08
2016-06-29T10:02:21.523Z,73.27
2016-06-29T10:03:21.510Z,72.31
2016-06-29T10:04:20.888Z,72.6
2016-06-29T10:05:21.486Z,72.02
2016-06-29T10:06:21.488Z,72.99
2016-06-29T10:07:21.471Z,71.96
2016-06-29T10:08:21.461Z,72.16
2016-06-29T10:09:21.647Z,73.11
2016-06-29T10:10:20.841Z,72.44
2016-06-29T10:11:21.430Z,72.06
2016-06-29T10:12:21.419Z,72.06
2016-06-29T10:13:20.804Z,72.44
2016-06-29T10:14:20.796Z,72.34
2016-06-29T10:15:20.795Z,71.29
2016-06-29T10:16:20.772Z,69.82
2016-06-29T10:17:21.382Z,67.87
2016-06-29T10:18:20.750Z,66.78
2016-06-29T10:19:20.753Z,67.81
2016-06-29T10:20:20.741Z,67.97
2016-06-29T10:21:20.736Z,68.6
2016-06-29T10:22:21.338Z,68.32
2016-06-29T10:23:20.716Z,68.19
2016-06-29T10:24:21.319Z,68.96
2016-06-29T10:25:20.701Z,68.57
2016-06-29T10:26:21.313Z,68.48
2016-06-29T10:27:20.691Z,68.48
2016-06-29T10:28:20.685Z,69.85
2016-06-29T10:29:21.282Z,69.24
2016-06-29T10:30:21.293Z,70.21
2016-06-29T10:31:21.262Z,70.11
2016-06-29T10:32:21.257Z,70.46
2016-06-29T10:33:20.636Z,70.46
2016-06-29T10:34:20.636Z,71.14
2016-06-29T10:35:20.622Z,69.02
2016-06-29T10:36:21.234Z,68.32
2016-06-29T10:37:21.230Z,67.81
2016-06-29T10:38:21.213Z,67.65
2016-06-29T10:39:20.595Z,63.73
2016-06-29T10:40:21.202Z,65.27
2016-06-29T10:41:21.188Z,65.17
2016-06-29T10:42:20.705Z,65.33
2016-06-29T10:43:21.175Z,66.49
2016-06-29T10:44:21.170Z,65.53
2016-06-29T10:45:21.165Z,67.16
2016-06-29T10:46:21.166Z,64.95
2016-06-29T10:47:21.147Z,64.72
2016-06-29T10:48:21.150Z,63.67
2016-06-29T10:49:21.139Z,61.67
2016-06-29T10:50:21.158Z,63.43
2016-06-29T10:51:20.533Z,62.5
2016-06-29T10:52:21.124Z,60.96
2016-06-29T10:53:21.115Z,59.51
2016-06-29T10:54:20.496Z,60.96
2016-06-29T10:55:20.499Z,61.38
2016-06-29T10:56:20.499Z,62.57
2016-06-29T10:57:21.133Z,65.24
2016-06-29T10:58:21.101Z,65.43
2016-06-29T10:59:21.114Z,65.05
2016-06-29T11:00:21.087Z,65.72
2016-06-29T11:01:20.466Z,65.72
2016-06-29T11:02:20.465Z,63.12
2016-06-29T11:03:21.065Z,63.98
2016-06-29T11:04:20.451Z,65.78
2016-06-29T11:05:20.444Z,63.5
2016-06-29T11:06:20.489Z,65.05
2016-06-29T11:07:21.054Z,65.91
2016-06-29T11:08:21.037Z,67.26
2016-06-29T11:09:20.419Z,65.81
2016-06-29T11:10:21.039Z,65.63
2016-06-29T11:11:21.031Z,64.28
2016-06-29T11:12:21.035Z,65.81
2016-06-29T11:13:21.043Z,65.81
2016-06-29T11:14:21.028Z,65.63
2016-06-29T11:15:21.011Z,66.2
2016-06-29T11:16:21.002Z,65.24
2016-06-29T11:17:21.015Z,64.59
2016-06-29T11:18:20.989Z,64.18
2016-06-29T11:19:20.365Z,64.5
2016-06-29T11:20:20.963Z,64.5
2016-06-29T11:21:20.949Z,63.76
2016-06-29T11:22:20.348Z,62.54
2016-06-29T11:23:20.942Z,62.41
2016-06-29T11:24:20.949Z,62.96
2016-06-29T11:25:20.941Z,64.79
2016-06-29T11:26:20.949Z,65.17
2016-06-29T11:27:20.312Z,63.24
2016-06-29T11:28:20.915Z,62.73
2016-06-29T11:29:20.314Z,64.47
2016-06-29T11:30:20.926Z,65.88
2016-06-29T11:31:20.910Z,66.46
2016-06-29T11:32:20.287Z,66.91
2016-06-29T11:33:20.897Z,64.63
2016-06-29T11:34:20.885Z,63.28
2016-06-29T11:35:20.259Z,62.63
2016-06-29T11:36:20.259Z,62.54
2016-06-29T11:37:20.259Z,64.66
2016-06-29T11:38:20.870Z,64.86
2016-06-29T11:39:20.252Z,65.81
2016-06-29T11:40:20.264Z,65.24
2016-06-29T11:41:20.822Z,64.66
2016-06-29T11:42:20.834Z,65.69
2016-06-29T11:43:20.847Z,65.88
2016-06-29T11:44:20.811Z,66.91
2016-06-29T11:45:20.813Z,66.52
2016-06-29T11:46:20.193Z,67.29
2016-06-29T11:47:20.818Z,67.16
2016-06-29T11:48:20.791Z,67.83
2016-06-29T11:49:20.792Z,67.83
2016-06-29T11:50:20.782Z,67.74
2016-06-29T11:51:20.150Z,67.55
2016-06-29T11:52:20.146Z,66.81
2016-06-29T11:53:20.744Z,67.29
2016-06-29T11:54:20.123Z,67.29
2016-06-29T11:55:20.131Z,66.71
2016-06-29T11:56:20.738Z,66.42
2016-06-29T11:57:20.731Z,66.33
2016-06-29T11:58:20.714Z,65.37
2016-06-29T11:59:20.716Z,67.19
2016-06-29T12:00:20.099Z,65.11
2016-06-29T12:01:20.739Z,64.25
2016-06-29T12:02:20.687Z,65.2
2016-06-29T12:03:20.059Z,64.76
2016-06-29T12:04:20.050Z,63.41
2016-06-29T12:05:20.054Z,63.6
2016-06-29T12:06:20.648Z,63.95
2016-06-29T12:07:20.650Z,65.11
2016-06-29T12:08:20.635Z,65.3
2016-06-29T12:09:20.234Z,64.43
2016-06-29T12:10:20.609Z,65.2
2016-06-29T12:11:20.617Z,65.75
2016-06-29T12:12:19.991Z,65.98
2016-06-29T12:13:19.988Z,63.47
2016-06-29T12:14:19.976Z,63.21
2016-06-29T12:15:20.577Z,62.28
2016-06-29T12:16:20.571Z,62.54
2016-06-29T12:17:19.961Z,61.02
2016-06-29T12:18:19.941Z,61.89
2016-06-29T12:19:20.556Z,59.86
2016-06-29T12:20:19.938Z,57.45
2016-06-29T12:21:20.530Z,56.46
2016-06-29T12:22:19.921Z,56.1
2016-06-29T12:23:20.556Z,55.45
2016-06-29T12:24:19.917Z,55.65
2016-06-29T12:25:19.904Z,55.77
2016-06-29T12:26:20.530Z,55.47
2016-06-29T12:27:20.511Z,56.25
2016-06-29T12:28:19.910Z,54.8
2016-06-29T12:29:19.893Z,52.31
2016-06-29T12:30:20.494Z,50.4
2016-06-29T12:31:20.503Z,49.65
2016-06-29T12:32:20.486Z,48.74
2016-06-29T12:33:19.881Z,49.99
2016-06-29T12:34:19.867Z,49.85
2016-06-29T12:35:20.485Z,49.75
2016-06-29T12:36:19.863Z,50.65
2016-06-29T12:37:19.852Z,48.52
2016-06-29T12:38:19.850Z,49.49
2016-06-29T12:39:20.466Z,49.77
2016-06-29T12:40:20.456Z,50.55
2016-06-29T12:41:20.459Z,48.44
2016-06-29T12:42:19.847Z,51.08
2016-06-29T12:43:19.840Z,48.59
2016-06-29T12:44:20.443Z,47.24
2016-06-29T12:45:19.831Z,46.67
2016-06-29T12:46:20.437Z,46.87
2016-06-29T12:47:20.453Z,44.26
2016-06-29T12:48:20.455Z,45.9
2016-06-29T12:49:19.820Z,43.68
2016-06-29T12:50:20.446Z,45.81
2016-06-29T12:51:19.835Z,46.46
2016-06-29T12:52:19.843Z,46.56
2016-06-29T12:53:19.819Z,45.98
2016-06-29T12:54:19.836Z,46.09
2016-06-29T12:55:19.814Z,46.75